Aviation Digital Data Service (ADDS)

Output produced by METARs form (1200 UTC 24 February 2018)
found at http://www.aviationweather.gov/adds/metars/
 
KJAC 241124Z 2412/2512 21008KT 4SM -SN SCT015 OVC025 
     FM242300 19012G18KT 2SM -SN OVC015 
     FM250700 20011KT P6SM VCSH SCT020 BKN035 AMD LTD TO CLD VIS AND WIND
       
KJAN 241154Z 2412/2512 18008KT P6SM BKN008 BKN012 
     FM241500 19014G24KT P6SM VCSH BKN015 OVC025 
     FM241900 18018G29KT P6SM VCSH BKN035 
     FM250700 20017G28KT 2SM TSRA BKN015 OVC025CB 
     FM251000 30009KT 6SM -TSRA BKN025 OVC060CB
       
KJAX 241120Z 2412/2512 00000KT 6SM BR SCT010 
     FM241400 17006KT P6SM FEW015 
     FM241800 14011KT P6SM BKN040 
     FM250100 16005KT P6SM SCT040 BKN080
       
KJBR 241140Z 2412/2512 16004KT P6SM VCSH OVC005 
     TEMPO 2412/2415 1SM BR OVC002 
     FM241600 20011G19KT 5SM -SHRA BR VCTS OVC009CB 
     FM241800 19012KT 4SM -TSRA BR OVC007CB 
     FM242200 19016G22KT 5SM SHRA BR VCTS OVC015CB 
     TEMPO 2422/2501 1SM +TSRA BR 
     FM250400 24014G21KT P6SM -RA OVC050 
     FM250800 28011KT P6SM -RA OVC050
       
KJFK 241150Z 2412/2518 30008KT P6SM SCT010 SCT150 SCT200 
     TEMPO 2412/2413 BKN010 
     FM241500 32007KT P6SM FEW020 OVC080 
     FM242100 34007KT P6SM -RA SCT025 OVC060 
     FM242300 03006KT 4SM -RA BKN035 
     FM250300 06005KT 5SM -RA BKN020 
     FM250500 07006KT 5SM RA BKN015 
     FM250800 08011G22KT 3SM RA OVC015 
     FM250900 09013G25KT 2SM RA OVC009 
     FM251700 10011KT 2SM RA OVC008
       
KJER 241140Z 2412/2512 22011KT P6SM SCT030 OVC080 
     FM242000 22011KT 3SM -SN BR OVC015 
     TEMPO 2420/2423 3/4SM -SN 
     FM250000 25015G25KT P6SM VCSH SCT020 BKN035 
     TEMPO 2500/2503 26015G25KT 1SM -SHSNPL OVC009 
     FM250300 24015G22KT P6SM SCT010
       
KJMS 241128Z 2412/2512 17005KT P6SM SCT250 
     FM241800 18010KT 3SM -SN BR OVC060 
     FM242000 17010KT 1 1/2SM -SN BR OVC010 
     FM250000 17006KT 4SM -SN BR OVC015 
     FM250400 23005KT P6SM BKN060 
     FM250600 25005KT P6SM SCT110
       
KJST 241200Z 2412/2512 01004KT 1/4SM FG VV002 
     FM241500 11004KT 1/4SM -RA FG OVC002 
     FM241800 06008KT 1SM -RA BR OVC003 
     FM250600 13010KT 2SM -RA BR OVC007 WS020/21044KT 
     FM251000 16009KT 4SM -RA BR OVC001 WS020/21045KT